Watkins Glen, New York
Current Conditions -  °F | °C
As of 2:53 AM on Saturday 25 Oct 2014 (Local Time) from KELM Reporting Station
Overcast Overcast  
Wind Chill:   Ceiling: 6500
Heat Index:   Visibility: 10mi
Dew Point:   Wind: 5mph
Humidity: 76%   Direction: 250°WSW
Pressure: 29.92"   Gusts: NA
Location:  42.38°N, 76.87°W
Report Text: KELM 250653Z AUTO 25004KT 10SM OVC065 05/01 A2992 RMK AO2 SLP133 T00500011
Loading
Personal Weather Stations






























Interactive Weather Map New forecast layout! Learn more

10-Day Weather Forecast

Advertisements
Track Severe Weather on mobile